Station Historical Data
Daily Summary for June 20, 2017 Units:  English    Metric   Both
« Previous Day
Next Day »
Daily Weekly Monthly Yearly Custom
  High: Low: Average:
Temperature: 79.6 °F 69.7 °F 72.8 °F
Dew Point: 73.1 °F 67.6 °F 69.8 °F
Humidity: 94% 74% 91%
Wind Speed: 0.0mph 0.0mph 0mph
Wind Gust: 2.0mph - -
Wind- -
Pressure: 30.09 in 30.02 in -
Precipitation: 0.02 in    
Historical Graphs
 
 
Tabular Data for June 20, 2017
Time Temperature Dew Point Pressure Wind Wind Speed Wind Gust Humidity Rainfall Rate (Hourly) Conditions
00:00 72.5 °F 70.4 °F 30.05 in Calm     93% 0.00 in RA
00:10 72.4 °F 70.3 °F 30.05 in Calm     93% 0.00 in CLR
00:20 72.3 °F 70.2 °F 30.05 in Calm     93% 0.00 in CLR
00:30 72.3 °F 70.2 °F 30.05 in Calm     93% 0.00 in CLR
00:40 72.3 °F 70.2 °F 30.05 in Calm     93% 0.00 in CLR
00:50 72.3 °F 70.1 °F 30.05 in Calm     93% 0.00 in CLR
01:00 72.2 °F 70.1 °F 30.05 in Calm     93% 0.00 in CLR
01:10 72.3 °F 70.2 °F 30.05 in Calm     93% 0.00 in CLR
01:20 72.4 °F 70.6 °F 30.05 in Calm     94% 0.00 in CLR
01:30 72.5 °F 70.7 °F 30.05 in Calm     94% 0.00 in CLR
01:40 72.5 °F 70.7 °F 30.05 in Calm     94% 0.00 in CLR
01:50 72.6 °F 70.8 °F 30.05 in Calm     94% 0.00 in CLR
02:00 72.6 °F 70.8 °F 30.04 in Calm     94% 0.00 in CLR
02:10 72.6 °F 70.8 °F 30.04 in Calm     94% 0.00 in CLR
02:20 72.6 °F 70.8 °F 30.04 in Calm     94% 0.00 in CLR
02:30 71.7 °F 69.6 °F 30.03 in Calm     93% 0.00 in CLR
02:40 71.7 °F 69.6 °F 30.03 in Calm     93% 0.00 in CLR
02:50 71.7 °F 69.6 °F 30.03 in Calm     93% 0.00 in CLR
03:00 71.7 °F 69.6 °F 30.04 in Calm     93% 0.00 in CLR
03:10 71.7 °F 69.6 °F 30.03 in Calm     93% 0.00 in CLR
03:20 71.7 °F 69.6 °F 30.04 in Calm     93% 0.00 in CLR
03:30 71.7 °F 69.6 °F 30.03 in Calm     93% 0.00 in CLR
03:40 71.7 °F 69.6 °F 30.03 in Calm     93% 0.00 in CLR
04:00 71.7 °F 69.6 °F 30.03 in Calm     93% 0.00 in CLR
04:10 71.7 °F 69.6 °F 30.02 in Calm     93% 0.00 in CLR
04:20 71.7 °F 69.6 °F 30.02 in Calm     93% 0.00 in CLR
04:30 71.7 °F 69.6 °F 30.02 in Calm     93% 0.00 in CLR
04:40 71.7 °F 69.6 °F 30.02 in Calm     93% 0.00 in CLR
04:50 71.7 °F 69.6 °F 30.02 in Calm     93% 0.00 in CLR
05:00 71.7 °F 69.6 °F 30.02 in Calm     93% 0.00 in CLR
05:10 71.7 °F 69.6 °F 30.02 in Calm     93% 0.00 in CLR
05:20 71.7 °F 69.6 °F 30.02 in Calm     93% 0.00 in CLR
05:30 71.7 °F 69.6 °F 30.02 in Calm     93% 0.00 in CLR
05:40 71.7 °F 69.6 °F 30.02 in Calm     93% 0.00 in CLR
05:50 71.7 °F 69.6 °F 30.02 in Calm     93% 0.00 in CLR
06:00 71.7 °F 69.6 °F 30.02 in Calm     93% 0.00 in CLR
06:10 71.7 °F 69.6 °F 30.02 in Calm     93% 0.00 in CLR
06:20 71.7 °F 69.6 °F 30.03 in Calm     93% 0.00 in CLR
06:30 71.7 °F 69.6 °F 30.03 in Calm     93% 0.00 in CLR
06:40 71.7 °F 69.6 °F 30.03 in Calm     93% 0.00 in CLR
06:50 71.7 °F 69.6 °F 30.03 in Calm     93% 0.00 in CLR
07:00 71.7 °F 69.6 °F 30.03 in Calm     93% 0.00 in CLR
07:20 71.7 °F 69.6 °F 30.04 in Calm     93% 0.00 in CLR
07:30 71.7 °F 69.6 °F 30.05 in Calm     93% 0.00 in CLR
07:40 71.7 °F 69.6 °F 30.05 in Calm     93% 0.00 in CLR
07:50 71.7 °F 69.6 °F 30.05 in Calm     93% 0.00 in CLR
08:00 71.7 °F 69.6 °F 30.05 in Calm     93% 0.00 in CLR
08:10 71.7 °F 69.6 °F 30.05 in Calm     93% 0.00 in CLR
08:20 71.7 °F 69.6 °F 30.06 in Calm     93% 0.00 in CLR
08:30 71.7 °F 69.6 °F 30.06 in Calm     93% 0.00 in CLR
08:40 71.7 °F 69.6 °F 30.06 in Calm     93% 0.00 in CLR
08:50 71.7 °F 69.6 °F 30.06 in Calm     93% 0.00 in CLR
09:00 71.7 °F 69.6 °F 30.06 in Calm     93% 0.00 in CLR
09:10 72.8 °F 71.0 °F 30.06 in Calm     94% 0.00 in CLR
09:20 72.8 °F 71.0 °F 30.06 in Calm     94% 0.00 in CLR
09:30 72.9 °F 71.0 °F 30.06 in Calm     94% 0.00 in CLR
09:40 72.8 °F 71.0 °F 30.06 in Calm     94% 0.00 in CLR
09:50 72.9 °F 71.1 °F 30.06 in Calm   1.0 mph 94% 0.00 in CLR
10:00 73.1 °F 71.3 °F 30.06 in Calm     94% 0.00 in CLR
10:10 73.0 °F 70.9 °F 30.06 in Calm   1.0 mph 93% 0.00 in CLR
10:30 73.6 °F 70.8 °F 30.06 in Calm     91% 0.00 in CLR
10:40 74.3 °F 71.5 °F 30.06 in Calm     91% 0.00 in CLR
10:50 74.5 °F 71.4 °F 30.06 in Calm   1.0 mph 90% 0.00 in CLR
11:00 74.8 °F 71.4 °F 30.06 in Calm     89% 0.00 in CLR
11:20 75.7 °F 71.2 °F 30.06 in Calm   1.0 mph 86% 0.00 in CLR
11:30 76.2 °F 71.0 °F 30.06 in Calm   1.0 mph 84% 0.00 in CLR
11:40 76.6 °F 70.7 °F 30.06 in Calm   1.0 mph 82% 0.00 in CLR
11:50 76.9 °F 71.3 °F 30.06 in Calm   1.0 mph 83% 0.00 in CLR
12:00 77.3 °F 70.6 °F 30.06 in Calm   1.0 mph 80% 0.00 in CLR
12:10 77.4 °F 72.2 °F 30.05 in Calm   1.0 mph 84% 0.00 in CLR
12:20 77.5 °F 71.6 °F 30.05 in Calm   1.0 mph 82% 0.00 in CLR
12:30 77.9 °F 72.3 °F 30.05 in Calm     83% 0.00 in CLR
12:40 78.3 °F 72.0 °F 30.05 in Calm     81% 0.00 in CLR
12:50 79.0 °F 73.1 °F 30.05 in Calm   1.0 mph 82% 0.00 in CLR
13:00 79.3 °F 71.1 °F 30.05 in Calm   2.0 mph 76% 0.00 in CLR
13:10 79.5 °F 71.3 °F 30.04 in Calm   2.0 mph 76% 0.00 in CLR
13:20 79.6 °F 70.6 °F 30.05 in Calm   1.0 mph 74% 0.00 in CLR
13:30 79.2 °F 71.0 °F 30.04 in Calm   1.0 mph 76% 0.00 in CLR
13:40 78.8 °F 71.7 °F 30.04 in Calm   1.0 mph 79% 0.00 in CLR
13:50 76.8 °F 70.5 °F 30.04 in Calm   2.0 mph 81% 0.00 in CLR
14:00 76.1 °F 70.9 °F 30.05 in Calm   2.0 mph 84% 0.00 in CLR
14:10 75.8 °F 71.0 °F 30.04 in Calm   1.0 mph 85% 0.00 in CLR
14:20 75.7 °F 70.5 °F 30.04 in Calm   1.0 mph 84% 0.00 in CLR
14:30 75.3 °F 70.1 °F 30.05 in Calm     84% 0.00 in CLR
14:40 75.0 °F 69.8 °F 30.05 in Calm   2.0 mph 84% 0.00 in CLR
14:50 74.9 °F 69.4 °F 30.04 in Calm   2.0 mph 83% 0.00 in CLR
15:00 75.2 °F 69.3 °F 30.05 in Calm   1.0 mph 82% 0.00 in CLR
15:10 74.8 °F 68.9 °F 30.05 in Calm   1.0 mph 82% 0.00 in CLR
15:20 74.6 °F 69.8 °F 30.05 in Calm     85% 0.00 in CLR
15:30 74.4 °F 69.6 °F 30.04 in Calm   1.0 mph 85% 0.00 in CLR
15:40 74.1 °F 69.6 °F 30.05 in Calm   1.0 mph 86% 0.00 in CLR
15:50 73.8 °F 69.4 °F 30.05 in Calm   1.0 mph 86% 0.00 in CLR
16:00 73.5 °F 69.7 °F 30.05 in Calm   1.0 mph 88% 0.00 in CLR
16:10 73.2 °F 69.8 °F 30.05 in Calm     89% 0.00 in CLR
16:30 72.9 °F 69.8 °F 30.04 in Calm     90% 0.00 in CLR
16:40 72.7 °F 69.6 °F 30.04 in Calm   2.0 mph 90% 0.00 in CLR
16:50 72.7 °F 69.9 °F 30.04 in Calm   2.0 mph 91% 0.01 in RA
17:00 72.6 °F 69.8 °F 30.04 in Calm   1.0 mph 91% 0.00 in CLR
17:10 72.1 °F 69.0 °F 30.04 in Calm   1.0 mph 90% 0.00 in CLR
17:20 71.9 °F 69.1 °F 30.04 in Calm     91% 0.00 in CLR
17:30 71.8 °F 69.0 °F 30.04 in Calm     91% 0.00 in CLR
17:40 71.8 °F 69.0 °F 30.04 in Calm   1.0 mph 91% 0.00 in CLR
17:50 71.7 °F 68.9 °F 30.03 in Calm   1.0 mph 91% 0.00 in CLR
18:00 71.4 °F 68.6 °F 30.03 in Calm     91% 0.00 in CLR
18:10 71.2 °F 68.4 °F 30.04 in Calm     91% 0.00 in CLR
18:20 71.3 °F 68.5 °F 30.03 in Calm     91% 0.00 in CLR
18:30 71.2 °F 68.8 °F 30.03 in Calm     92% 0.00 in CLR
18:40 71.3 °F 68.9 °F 30.03 in Calm     92% 0.00 in CLR
18:50 71.2 °F 68.8 °F 30.03 in Calm     92% 0.00 in CLR
19:00 71.2 °F 68.8 °F 30.03 in Calm     92% 0.00 in CLR
19:10 71.2 °F 68.8 °F 30.03 in Calm     92% 0.00 in CLR
19:20 71.3 °F 68.8 °F 30.03 in Calm     92% 0.00 in CLR
19:30 71.3 °F 68.8 °F 30.04 in Calm   1.0 mph 92% 0.00 in CLR
19:40 71.3 °F 68.9 °F 30.04 in Calm     92% 0.00 in CLR
19:50 71.4 °F 69.0 °F 30.05 in Calm     92% 0.00 in CLR
20:00 71.4 °F 69.0 °F 30.05 in Calm     92% 0.00 in CLR
20:10 71.4 °F 69.0 °F 30.05 in Calm   1.0 mph 92% 0.00 in CLR
20:20 71.5 °F 69.4 °F 30.05 in Calm   1.0 mph 93% 0.00 in CLR
20:30 71.5 °F 69.4 °F 30.05 in Calm     93% 0.00 in CLR
20:40 71.5 °F 69.3 °F 30.05 in Calm     93% 0.00 in CLR
20:50 71.4 °F 69.3 °F 30.05 in Calm   1.0 mph 93% 0.00 in CLR
21:00 71.4 °F 69.3 °F 30.05 in Calm   1.0 mph 93% 0.00 in CLR
21:10 71.4 °F 69.3 °F 30.05 in Calm     93% 0.00 in CLR
21:20 71.2 °F 69.1 °F 30.05 in Calm   1.0 mph 93% 0.00 in CLR
21:30 71.0 °F 68.9 °F 30.06 in Calm   1.0 mph 93% 0.00 in CLR
21:40 70.9 °F 68.8 °F 30.07 in Calm     93% 0.00 in CLR
21:50 70.7 °F 68.6 °F 30.07 in Calm     93% 0.00 in CLR
22:00 70.6 °F 68.5 °F 30.07 in Calm   1.0 mph 93% 0.00 in CLR
22:10 70.6 °F 68.5 °F 30.08 in Calm   1.0 mph 93% 0.00 in CLR
22:20 70.5 °F 68.4 °F 30.08 in Calm   1.0 mph 93% 0.00 in CLR
22:30 70.4 °F 68.3 °F 30.08 in Calm   1.0 mph 93% 0.00 in CLR
22:40 70.4 °F 68.3 °F 30.09 in Calm   1.0 mph 93% 0.00 in CLR
22:50 70.4 °F 68.3 °F 30.09 in Calm     93% 0.00 in CLR
23:00 70.4 °F 68.3 °F 30.09 in Calm     93% 0.00 in CLR
23:10 70.4 °F 68.3 °F 30.09 in Calm     93% 0.00 in CLR
23:20 70.2 °F 68.1 °F 30.09 in Calm   1.0 mph 93% 0.00 in CLR
23:30 70.1 °F 68.0 °F 30.09 in Calm   1.0 mph 93% 0.00 in CLR
23:40 69.9 °F 67.8 °F 30.09 in Calm     93% 0.00 in CLR
23:50 69.7 °F 67.6 °F 30.09 in Calm     93% 0.00 in CLR
Piedmont Bend
Compliments of Weather Underground - 2 mb